Bradfordton, Illinois
Current Conditions -  °F | °C
As of 9:52 PM on Tuesday 21 Oct 2014 (Local Time) from KSPI Reporting Station
Clear Clear  
Wind Chill: 44°   Ceiling: Unl
Heat Index: 49°   Visibility: 10mi
Dew Point: 42°   Wind: 12mph
Humidity: 77%   Direction: 90°E
Pressure: 30.23"   Gusts: NA
Location:  39.854°N, 89.6295°W
Report Text: KSPI 220252Z AUTO 09010KT 10SM CLR 09/06 A3023 RMK AO2 SLP239 T00940056 51020
Loading
Personal Weather Stations






























Interactive Weather Map
Tropical Storm Tracking
New forecast layout! Learn more

10-Day Weather Forecast

Advertisements
Track Severe Weather on mobile